Charter Quote
Worldwide +1-877-727-2538 Call
Select Language Lang
SAFETY RELIABILITY EXPERIENCE

Private Jet Charter Services - Laishan (ZSYT)

Paramount Business Jets offers private jet charter flights and luxury airliner charters to and from Laishan.

AIRPORT INFORMATION
ICAOZSYT
LOCATIONYantai, China
FACILITY TYPEAIRPORT

At Paramount Business Jets you can hire chartered private jets to and from Laishan with as little as 4 hours of notice. All flights booked via Paramount Business Jets are operated by certified direct air carriers that meet and exceed the FAA part 135 and 121 protocol or a foreign equivalent safety authority. Furthermore, Paramount Business Jets subscribes to ARGUS for their third party safety checks of operators, aircraft, and crews prior each and every flight to and from Laishan and worldwide.

  • Quote a trip using Laishan or call us 24/7 - 365 days a year at +1-877-727-2538.
Questions? Call +1-877-727-2538

METAR Weather Data at Laishan, ZSYT

STATIONZSYT
OBSERVEDTue May 28, 18:00 UTC
NOWTue Jul 16, 04:53 UTC
AGE1162:53 hr ago
WINDW at 11 mph
VISIBILITYgreater than 7 miles
CLOUDSclear skies
TEMP73°F (23°C)
DEWPT46°F (8°C)
HUMIDITY38%
BAROMETER1011 hPa (29.85 in Hg)
METARZSYT 281800Z 28005MPS CAVOK 23/08 Q1011 NOSIG

Call us on +1-877-727-2538 (24 Hours) to Hire a Private Jet or Get a Quick Quote.

Find Airports Near any Location

Processing
...